createdAt,value
2023-01-30T00:02:51.388Z,30.70
2023-01-30T00:08:01.369Z,35.50
2023-01-30T00:13:09.028Z,40.80
2023-01-30T00:18:23.380Z,34.20
2023-01-30T00:23:35.237Z,39.30
2023-01-30T00:28:46.123Z,37.00
2023-01-30T00:33:56.817Z,40.00
2023-01-30T00:39:06.936Z,38.80
2023-01-30T00:44:35.167Z,43.90
2023-01-30T00:49:49.418Z,35.10
2023-01-30T00:55:03.724Z,41.20
2023-01-30T01:00:14.274Z,41.30
2023-01-30T01:05:22.178Z,38.20
2023-01-30T01:10:32.659Z,40.30
2023-01-30T01:15:48.355Z,41.80
2023-01-30T01:21:00.174Z,31.70
2023-01-30T01:26:21.832Z,34.80
2023-01-30T01:31:32.365Z,35.50
2023-01-30T01:36:55.477Z,35.60
2023-01-30T01:42:05.449Z,32.70
2023-01-30T01:47:12.884Z,36.70
2023-01-30T01:52:25.280Z,37.20
2023-01-30T01:57:58.703Z,35.80
2023-01-30T02:03:16.983Z,32.00
2023-01-30T02:08:33.147Z,39.90
2023-01-30T02:13:41.423Z,36.20
2023-01-30T02:18:51.174Z,35.90
2023-01-30T02:24:39.771Z,39.10
2023-01-30T02:30:26.636Z,43.20
2023-01-30T02:35:46.129Z,35.70
2023-01-30T02:41:11.780Z,39.10
2023-01-30T02:46:27.468Z,36.40
2023-01-30T02:51:50.989Z,37.20
2023-01-30T02:57:03.764Z,34.30
2023-01-30T03:02:34.177Z,29.70
2023-01-30T03:08:08.998Z,30.20
2023-01-30T03:13:31.435Z,29.80
2023-01-30T03:18:42.021Z,32.40
2023-01-30T03:24:02.828Z,31.90
2023-01-30T03:29:13.749Z,30.80
2023-01-30T03:34:22.361Z,33.80
2023-01-30T03:39:32.847Z,30.10
2023-01-30T03:44:41.452Z,34.50
2023-01-30T03:49:53.961Z,32.70
2023-01-30T03:55:04.011Z,31.00
2023-01-30T04:00:21.146Z,34.90
2023-01-30T04:05:32.397Z,29.90
2023-01-30T04:10:48.805Z,30.20
2023-01-30T04:21:42.688Z,42.90
2023-01-30T04:26:51.253Z,65.20
2023-01-30T04:32:01.906Z,30.90
2023-01-30T04:37:26.764Z,37.60
2023-01-30T04:42:39.212Z,41.80
2023-01-30T04:48:10.997Z,41.80
2023-01-30T04:53:22.966Z,37.60
2023-01-30T04:58:40.646Z,59.80
2023-01-30T05:03:56.750Z,62.80
2023-01-30T05:09:06.827Z,51.30
2023-01-30T05:14:19.070Z,83.20
2023-01-30T05:19:27.492Z,51.80
2023-01-30T05:24:44.209Z,39.20
2023-01-30T05:29:52.460Z,38.80
2023-01-30T05:35:04.479Z,38.70
2023-01-30T05:40:23.360Z,36.90
2023-01-30T05:45:30.641Z,43.80
2023-01-30T05:50:44.294Z,31.60
2023-01-30T05:55:58.281Z,38.70
2023-01-30T06:01:11.835Z,36.30
2023-01-30T06:06:21.986Z,37.30
2023-01-30T06:11:32.892Z,40.40
2023-01-30T06:16:45.131Z,32.50
2023-01-30T06:21:57.868Z,33.00
2023-01-30T06:27:09.856Z,33.00
2023-01-30T06:32:19.410Z,29.50
2023-01-30T06:37:37.860Z,28.50
2023-01-30T06:42:54.833Z,29.90
2023-01-30T06:48:10.244Z,35.60
2023-01-30T06:53:21.150Z,30.50
2023-01-30T06:58:38.603Z,30.40
2023-01-30T07:03:50.055Z,74.30
2023-01-30T07:09:06.210Z,42.60
2023-01-30T07:19:39.075Z,35.90
2023-01-30T07:24:56.319Z,31.40
2023-01-30T07:30:15.937Z,36.00
2023-01-30T07:35:27.113Z,32.80
2023-01-30T07:40:37.559Z,38.00
2023-01-30T07:45:48.931Z,32.40
2023-01-30T07:56:19.588Z,50.00
2023-01-30T08:01:36.128Z,46.60
2023-01-30T08:06:44.770Z,43.50
2023-01-30T08:12:08.392Z,45.00
2023-01-30T08:17:18.901Z,42.90
2023-01-30T08:22:29.089Z,47.80
2023-01-30T08:27:43.115Z,51.50
2023-01-30T08:32:52.617Z,41.70
2023-01-30T08:38:18.234Z,43.70
2023-01-30T08:43:30.726Z,41.30
2023-01-30T08:48:49.973Z,39.70
2023-01-30T08:54:03.993Z,49.70
2023-01-30T08:59:14.843Z,40.60
2023-01-30T09:04:27.291Z,66.40
2023-01-30T09:09:39.923Z,67.90
2023-01-30T09:14:53.515Z,48.60
2023-01-30T09:20:09.512Z,52.20
2023-01-30T09:25:25.631Z,44.40
2023-01-30T09:30:36.011Z,37.30
2023-01-30T09:35:52.157Z,39.30
2023-01-30T09:41:16.391Z,30.60
2023-01-30T09:46:48.508Z,34.40
2023-01-30T09:52:09.900Z,37.10
2023-01-30T09:57:23.170Z,43.90
2023-01-30T10:02:59.287Z,45.20
2023-01-30T10:08:45.722Z,41.30
2023-01-30T10:14:24.001Z,27.10
2023-01-30T10:19:53.535Z,34.10
2023-01-30T10:25:14.528Z,43.80
2023-01-30T10:30:28.731Z,35.10
2023-01-30T10:35:41.035Z,41.50
2023-01-30T10:41:12.341Z,34.70
2023-01-30T10:46:48.627Z,35.30
2023-01-30T10:52:05.025Z,30.10
2023-01-30T10:57:37.251Z,35.20
2023-01-30T11:03:02.205Z,34.10
2023-01-30T11:08:31.251Z,44.00
2023-01-30T11:13:45.240Z,49.70
2023-01-30T11:24:41.200Z,29.70
2023-01-30T11:30:03.872Z,35.20
2023-01-30T11:35:40.550Z,68.30
2023-01-30T11:41:19.463Z,17.70
2023-01-30T11:46:36.933Z,18.10
2023-01-30T11:51:50.568Z,20.00
2023-01-30T11:57:05.653Z,19.70
2023-01-30T12:02:25.194Z,24.50
2023-01-30T12:07:47.002Z,17.60
2023-01-30T12:13:02.196Z,20.70
2023-01-30T12:18:20.908Z,14.90
2023-01-30T12:23:47.821Z,12.00
2023-01-30T12:29:16.117Z,9.80
2023-01-30T12:34:27.535Z,12.30
2023-01-30T12:45:17.369Z,13.40
2023-01-30T12:50:43.439Z,11.50
2023-01-30T12:56:23.993Z,10.30
2023-01-30T13:02:04.754Z,8.60
2023-01-30T13:07:33.893Z,9.80
2023-01-30T13:12:48.628Z,10.50
2023-01-30T13:18:15.897Z,11.70
2023-01-30T13:23:49.291Z,11.40
2023-01-30T13:29:06.125Z,9.20
2023-01-30T13:34:26.898Z,8.80
2023-01-30T13:39:42.872Z,8.30
2023-01-30T13:45:06.019Z,11.70
2023-01-30T13:50:38.483Z,9.60
2023-01-30T13:55:57.052Z,6.60
2023-01-30T14:01:23.711Z,10.40
2023-01-30T14:06:47.921Z,5.80
2023-01-30T14:12:04.073Z,10.10
2023-01-30T14:17:16.628Z,7.10
2023-01-30T14:22:38.293Z,6.30
2023-01-30T14:27:46.079Z,7.50
2023-01-30T14:32:58.935Z,8.60
2023-01-30T14:38:16.857Z,11.70
2023-01-30T14:43:53.035Z,8.90
2023-01-30T14:49:05.591Z,8.20
2023-01-30T14:59:37.953Z,8.40
2023-01-30T15:04:47.984Z,7.40
2023-01-30T15:09:58.790Z,9.20
2023-01-30T15:15:15.208Z,6.80
2023-01-30T15:20:32.465Z,7.50
2023-01-30T15:25:55.514Z,10.00
2023-01-30T15:31:10.330Z,8.70
2023-01-30T15:36:39.030Z,6.60
2023-01-30T15:41:46.579Z,7.50
2023-01-30T15:47:02.190Z,8.00
2023-01-30T15:52:15.478Z,8.00
2023-01-30T15:57:26.793Z,16.50
2023-01-30T16:02:36.560Z,10.60
2023-01-30T16:07:45.386Z,10.90
2023-01-30T16:12:57.959Z,10.90
2023-01-30T16:18:16.697Z,7.70
2023-01-30T16:23:27.072Z,14.00
2023-01-30T16:28:35.131Z,11.10
2023-01-30T16:33:42.166Z,13.40
2023-01-30T16:38:50.830Z,7.50
2023-01-30T16:44:11.884Z,9.70
2023-01-30T16:49:23.792Z,26.30
2023-01-30T16:54:36.723Z,9.90
2023-01-30T16:59:53.451Z,15.30
2023-01-30T17:05:22.893Z,11.80
2023-01-30T17:11:06.871Z,10.40
2023-01-30T17:16:43.254Z,7.60
2023-01-30T17:21:54.980Z,12.10
2023-01-30T17:32:16.385Z,14.80
2023-01-30T17:37:24.057Z,14.00
2023-01-30T17:42:31.238Z,8.40
2023-01-30T17:47:38.228Z,9.30
2023-01-30T17:52:45.375Z,8.90
2023-01-30T17:57:53.107Z,15.40
2023-01-30T18:03:00.142Z,6.00
2023-01-30T18:08:07.656Z,7.80
2023-01-30T18:13:15.011Z,14.00
2023-01-30T18:18:23.503Z,8.00
2023-01-30T18:23:30.770Z,14.70
2023-01-30T18:28:41.036Z,10.40
2023-01-30T18:33:48.429Z,9.60
2023-01-30T18:38:55.924Z,9.90
2023-01-30T18:44:05.362Z,5.00
2023-01-30T18:49:12.569Z,8.50
2023-01-30T18:54:19.728Z,8.90
2023-01-30T18:59:27.538Z,6.90
2023-01-30T19:04:34.592Z,8.80
2023-01-30T19:10:00.205Z,7.40
2023-01-30T19:15:11.941Z,9.30
2023-01-30T19:20:25.894Z,8.40
2023-01-30T19:25:35.472Z,8.30
2023-01-30T19:30:45.840Z,12.30
2023-01-30T19:35:56.985Z,7.20
2023-01-30T19:41:11.690Z,5.60
2023-01-30T19:46:22.243Z,9.40
2023-01-30T19:51:32.525Z,9.70
2023-01-30T19:56:48.487Z,9.00
2023-01-30T20:01:56.296Z,12.50
2023-01-30T20:07:08.677Z,13.20
2023-01-30T20:12:16.781Z,10.60
2023-01-30T20:17:27.244Z,11.30
2023-01-30T20:22:37.815Z,10.60
2023-01-30T20:27:50.180Z,12.50
2023-01-30T20:33:04.857Z,8.40
2023-01-30T20:38:16.438Z,6.50
2023-01-30T20:43:27.281Z,6.70
2023-01-30T20:48:34.962Z,11.50
2023-01-30T20:53:52.737Z,14.60
2023-01-30T20:59:00.689Z,15.60
2023-01-30T21:04:13.853Z,8.70
2023-01-30T21:09:33.397Z,11.10
2023-01-30T21:14:46.811Z,14.40
2023-01-30T21:19:55.151Z,6.60
2023-01-30T21:25:07.276Z,13.70
2023-01-30T21:30:30.593Z,11.10
2023-01-30T21:35:42.887Z,11.20
2023-01-30T21:41:15.015Z,17.30
2023-01-30T21:46:30.404Z,11.20
2023-01-30T21:51:41.829Z,13.30
2023-01-30T21:56:51.375Z,17.20
2023-01-30T22:02:05.216Z,11.60
2023-01-30T22:07:19.175Z,24.80
2023-01-30T22:12:36.619Z,16.60
2023-01-30T22:17:51.308Z,25.80
2023-01-30T22:23:00.948Z,18.40
2023-01-30T22:28:10.733Z,20.60
2023-01-30T22:33:18.311Z,18.60
2023-01-30T22:38:29.401Z,21.20
2023-01-30T22:43:46.677Z,20.30
2023-01-30T22:48:55.958Z,22.30
2023-01-30T22:54:08.275Z,17.80
2023-01-30T22:59:18.716Z,15.40
2023-01-30T23:04:32.602Z,18.40
2023-01-30T23:09:42.028Z,11.60
2023-01-30T23:14:54.933Z,22.40
2023-01-30T23:20:07.989Z,15.00
2023-01-30T23:25:20.872Z,23.50
2023-01-30T23:30:33.110Z,23.30
2023-01-30T23:35:44.109Z,27.70
2023-01-30T23:40:53.906Z,24.60
2023-01-30T23:46:23.619Z,25.10
2023-01-30T23:51:32.883Z,29.00
2023-01-30T23:56:42.210Z,24.80
